Scroll down
FLIGHT INFORMATION
Ryanair

RYR1452

At Arrival Gate

EIDW
 EBBR
DATE: 2020-06-19
GATE: 122
GATE DEPARTURE: 21:42
TAKEOFF: 21:54
DATE: 2020-06-19
GATE:  -
LANDING: 23:04
GATE ARRIVAL: 23:12
FLIGHT DATA
Crew: 
Speed: 
480 kts
Altitude: 
35,022 ft
Stage Length: 
423.5 nm
Block Time: 
1.4 hrs
Flight Time: 
1.2 hrs
Fuel Used: 
8,379 lb
Cleared Route: EIDW OENB BAL NEPOD PESIT BAKUR STU LUFTU DIKAS DEZZU GAVGO KENET CPT NORRY LINDY GOXUL BIG DIKVU LAVRI EMKAD UMTUM DVR VABIK MADUX KOK BR201 KERKY RW25L
TRACK DATA
50,000 ft 1,000 kts
AIRCRAFT INFO AND CUMULATIVE STATS
Aircraft Type: 
B738BW
Registration: 
SELCAL: 
MSN/LN: 
40300 / 3514
Operator: 
Total Flights: 
6
Total Block Time: 
22 hrs
Total Flight Time: 
20.9 hrs
Total Fuel Time: 
48,925 lb
DATALINK LOG | Newest first | Current as of: 2021-04-10 15:09:21
LABEL SEQUENCE CONTENT Dn/Up
QD150623:12 8.6▼ Dn
QC060223:04▼ Dn
GA5855ADVANCED GATE ASSIGNMENTS NOT YET AVAILABLE AT THIS AIRPORT▲ Up
GR5855EBBR 23:01 HI-VAL NO DIPL/VIP NO▼ Dn
2U3521EBBR 091950Z 22029G43KT 9999 -RA BKN011 BKN022 12/11 Q0991 RERA TEMPO 3000 RA▲ Up
2S3734EBBR▼ Dn
QB565821:54▼ Dn
QA444921:42 17.1▼ Dn
2U3136EBBR 091850Z 21028G40KT 9999 -RA BKN011 11/11 Q0993 RERA TEMPO 21035G50KT 3000 RA▲ Up
2U3136EIDW 091900Z 25017KT 200V280 9999 FEW015 SCT030 BKN200 07/04 Q0979 TEMPO 5000▲ Up
2S3240EIDW EBBR▼ Dn
A73238CLEARANCE AVAIL WITHIN 0:25 OF EDT▲ Up
B33238EIDW EBBR RYR1452 EIENI ▼ Dn
Q02935[LINK ACK]▲ Up
Q02935[LINK TEST]▼ Dn


AIRCRAFT HISTORY
FLIGHT DATE FLIGHT NO. ORIGIN DESTINATION CLEARED ROUTE BLOCK TIME FLIGHT TIME FUEL USED PILOT
2020-09-05RYR905LPMA GCXO 1 hrs0.9 hrs6,247 lbKevin Hall
2020-09-05RYR905LPPT LPMA LPPT GANSU NARTA ROLAR LIDRO LPMA1.6 hrs1.4 hrs9,670 lbKevin Hall
2020-07-03RYR1534EDDK LPPT EDDK DK034 DK035 DK038 PODIP KUMIK LPPT16.8 hrs16.4 hrs17,799 lbStephan Oschmann
2020-07-02EDDF EDDK EDDF DF999 VFM DF180 ROXAP ADEVO LISKU TABUM TESGA TOBAK GULKO DK627 DK615 DK654 RARIX RW32R0.5 hrs0.4 hrs2,168 lbEmanuel Hagen
2020-06-30EBBR EDDF EBBR BR421 BR422 BR413 HUL SPI EDDF0.8 hrs0.6 hrs4,661 lbStephan Oschmann
2020-06-19RYR1452EIDW EBBR EIDW OENB BAL NEPOD PESIT BAKUR STU LUFTU DIKAS DEZZU GAVGO KENET CPT NORRY LINDY GOXUL BIG DIKVU LAVRI EMKAD UMTUM DVR VABIK MADUX KOK BR201 KERKY RW25L1.4 hrs1.2 hrs8,379 lbMark Adeane